Eleni D — A8VQ4 — position and weather

sailwx.info

Track history (hours):
 
Tides and Currents Weather Stations Pressure Air Temp Water Temp Dewpoint Dewpoint Depression Visibility Wind Speed Wind Dir Waves Ship Positions

Eleni D

Last reported at 2018-Jun-02 10:42 UTC. Time now 2018-Jun-23 11:52 UTC.
Position S 26°09' W 044°49'.
Warning: this ship's position is 21 days out of date.

Length 196 m; draft 12 m.

Type: Cargo ship. MMSI: 636014651.

Date/timePositionNaut miles runAvg speedWind from/ knotsBaromVisibWave heightAir tempDewpointWater temp
2018-Jun-02 10:42S 26°09' W 044°49'312.3
2018-Jun-02 10:29S 26°08' W 044°52'2512.3
2018-Jun-02 08:29S 26°05' W 045°19'812.4
2018-Jun-02 07:50S 26°03' W 045°28'412.4
2018-Jun-02 07:28S 26°02' W 045°33'612.4
2018-Jun-02 06:58S 26°02' W 045°40'712.4
2018-Jun-02 06:27S 26°00' W 045°47'612.1
2018-Jun-02 05:57S 25°59' W 045°53'512.1
2018-Jun-02 05:30S 25°59' W 045°59'612.2
2018-Jun-02 05:00S 25°58' W 046°06'612.2
2018-Jun-02 04:30S 25°57' W 046°13'612.4
2018-Jun-02 04:00S 25°56' W 046°19'612.7
2018-Jun-02 03:31S 25°55' W 046°26'612.5
2018-Jun-02 03:00S 25°54' W 046°33'612.6
2018-Jun-02 02:30S 25°53' W 046°40'612.8
2018-Jun-02 02:01S 25°52' W 046°47'612.5
2018-Jun-02 01:30S 25°51' W 046°54'612.5
2018-Jun-02 01:00S 25°50' W 047°01'612.5
2018-Jun-02 00:30S 25°49' W 047°08'612.7
2018-Jun-02 00:00S 25°48' W 047°15'612.6
2018-Jun-01 23:30S 25°47' W 047°21'612.8
2018-Jun-01 23:00S 25°45' W 047°29'713.0
2018-Jun-01 22:30S 25°44' W 047°36'612.9
2018-Jun-01 22:00S 25°43' W 047°43'712.8
2018-Jun-01 21:29S 25°42' W 047°50'  
Track history (hours):
 
Tides and Currents Weather Stations Pressure Air Temp Water Temp Dewpoint Dewpoint Depression Visibility Wind Speed Wind Dir Waves Ship Positions

Eleni D

Last reported at 2018-Jun-02 10:42 UTC. Time now 2018-Jun-23 11:52 UTC.
Position S 26°09' W 044°49'.
Warning: this ship's position is 21 days out of date.

Length 196 m; draft 12 m.

Type: Cargo ship. MMSI: 636014651.

Date/timePositionNaut miles runAvg speedWind from/ knotsBaromVisibWave heightAir tempDewpointWater temp
2018-Jun-02 10:42S 26°09' W 044°49'312.3
2018-Jun-02 10:29S 26°08' W 044°52'2512.3
2018-Jun-02 08:29S 26°05' W 045°19'812.4
2018-Jun-02 07:50S 26°03' W 045°28'412.4
2018-Jun-02 07:28S 26°02' W 045°33'612.4
2018-Jun-02 06:58S 26°02' W 045°40'712.4
2018-Jun-02 06:27S 26°00' W 045°47'612.1
2018-Jun-02 05:57S 25°59' W 045°53'512.1
2018-Jun-02 05:30S 25°59' W 045°59'612.2
2018-Jun-02 05:00S 25°58' W 046°06'612.2
2018-Jun-02 04:30S 25°57' W 046°13'612.4
2018-Jun-02 04:00S 25°56' W 046°19'612.7
2018-Jun-02 03:31S 25°55' W 046°26'612.5
2018-Jun-02 03:00S 25°54' W 046°33'612.6
2018-Jun-02 02:30S 25°53' W 046°40'612.8
2018-Jun-02 02:01S 25°52' W 046°47'612.5
2018-Jun-02 01:30S 25°51' W 046°54'612.5
2018-Jun-02 01:00S 25°50' W 047°01'612.5
2018-Jun-02 00:30S 25°49' W 047°08'612.7
2018-Jun-02 00:00S 25°48' W 047°15'612.6
2018-Jun-01 23:30S 25°47' W 047°21'612.8
2018-Jun-01 23:00S 25°45' W 047°29'713.0
2018-Jun-01 22:30S 25°44' W 047°36'612.9
2018-Jun-01 22:00S 25°43' W 047°43'712.8
2018-Jun-01 21:29S 25°42' W 047°50'  

Dump ship's entire track history